createdAt,value
2018-09-09T03:02:48.217Z,22.30
2018-09-09T03:05:17.844Z,10.80
2018-09-09T03:07:47.005Z,10.40
2018-09-09T03:10:16.604Z,10.20
2018-09-09T03:12:47.092Z,10.10
2018-09-09T03:15:16.250Z,9.90
2018-09-09T03:17:45.360Z,9.80
2018-09-09T03:20:14.547Z,9.80
2018-09-09T03:22:43.657Z,9.80
2018-09-09T03:25:12.790Z,9.80
2018-09-09T03:27:41.836Z,9.70
2018-09-09T03:30:10.997Z,9.70
2018-09-09T03:32:40.020Z,9.60
2018-09-09T03:35:09.117Z,9.60
2018-09-09T03:37:38.233Z,9.60
2018-09-09T03:40:07.378Z,9.60
2018-09-09T03:42:37.020Z,9.70
2018-09-09T03:45:07.085Z,9.70
2018-09-09T03:47:36.208Z,9.60
2018-09-09T03:50:05.352Z,9.60
2018-09-09T03:52:34.495Z,9.60
2018-09-09T03:55:04.232Z,9.60
2018-09-09T03:57:33.372Z,9.60
2018-09-09T04:00:02.533Z,9.50
2018-09-09T04:02:31.752Z,9.50
2018-09-09T04:05:00.903Z,9.50
2018-09-09T04:07:30.218Z,9.40
2018-09-09T04:09:59.387Z,9.40
2018-09-09T04:12:28.463Z,9.30
2018-09-09T04:14:57.560Z,9.20
2018-09-09T04:17:26.700Z,9.10
2018-09-09T04:19:55.796Z,9.10
2018-09-09T04:22:24.963Z,9.00
2018-09-09T04:24:54.024Z,8.90
2018-09-09T04:27:24.242Z,9.00
2018-09-09T04:29:53.340Z,9.00
2018-09-09T04:32:22.487Z,9.00
2018-09-09T04:34:52.232Z,9.00
2018-09-09T04:37:21.342Z,9.00
2018-09-09T04:39:50.749Z,9.10
2018-09-09T04:42:19.909Z,9.20
2018-09-09T04:44:49.057Z,9.20
2018-09-09T04:47:18.183Z,9.20
2018-09-09T04:49:47.652Z,9.10
2018-09-09T04:52:17.412Z,9.10
2018-09-09T04:54:46.506Z,9.10
2018-09-09T04:57:15.841Z,9.10
2018-09-09T04:59:44.937Z,9.10
2018-09-09T05:02:14.054Z,9.10
2018-09-09T05:04:43.116Z,9.10
2018-09-09T05:07:12.248Z,9.10
2018-09-09T05:09:41.382Z,9.10
2018-09-09T05:12:10.532Z,9.10
2018-09-09T05:14:39.616Z,9.10
2018-09-09T05:17:08.808Z,9.00
2018-09-09T05:19:38.625Z,9.00
2018-09-09T05:22:08.221Z,9.00
2018-09-09T05:24:37.885Z,9.00
2018-09-09T05:27:07.057Z,9.00
2018-09-09T05:29:36.140Z,9.10
2018-09-09T05:32:05.196Z,9.20
2018-09-09T05:34:35.152Z,9.20
2018-09-09T05:37:04.216Z,9.30
2018-09-09T05:39:33.816Z,9.30
2018-09-09T05:42:02.956Z,9.20
2018-09-09T05:44:32.514Z,9.20
2018-09-09T05:47:01.640Z,9.10
2018-09-09T05:49:31.519Z,9.10
2018-09-09T05:52:00.637Z,9.20
2018-09-09T05:54:29.716Z,9.40
2018-09-09T05:56:58.828Z,9.40
2018-09-09T05:59:28.964Z,9.50
2018-09-09T06:01:58.035Z,9.70
2018-09-09T06:04:28.193Z,9.90
2018-09-09T06:06:57.380Z,10.10
2018-09-09T06:09:26.521Z,10.20
2018-09-09T06:11:55.693Z,10.30
2018-09-09T06:14:24.837Z,10.40
2018-09-09T06:16:53.964Z,10.50
2018-09-09T06:19:23.030Z,10.40
2018-09-09T06:21:52.149Z,10.50
2018-09-09T06:24:21.552Z,10.90
2018-09-09T06:26:50.906Z,11.10
2018-09-09T06:29:20.640Z,11.60
2018-09-09T06:31:49.864Z,12.20
2018-09-09T06:34:18.976Z,12.60
2018-09-09T06:36:48.099Z,12.80
2018-09-09T06:39:17.876Z,13.10
2018-09-09T06:41:46.948Z,13.50
2018-09-09T06:44:16.088Z,14.40
2018-09-09T06:46:46.216Z,15.70
2018-09-09T06:49:15.385Z,17.30
2018-09-09T06:51:44.636Z,18.30
2018-09-09T06:54:13.771Z,19.00
2018-09-09T06:56:42.855Z,20.30
2018-09-09T06:59:12.005Z,21.20
2018-09-09T07:01:41.688Z,22.10
2018-09-09T07:04:10.865Z,22.90
2018-09-09T07:06:39.933Z,23.60
2018-09-09T07:09:09.944Z,24.10
2018-09-09T07:11:39.301Z,24.90
2018-09-09T07:14:08.737Z,25.70
2018-09-09T07:16:38.151Z,26.40
2018-09-09T07:19:07.459Z,26.80
2018-09-09T07:21:36.571Z,26.80
2018-09-09T07:24:05.764Z,23.70
2018-09-09T07:26:35.180Z,22.20
2018-09-09T07:29:04.784Z,22.20
2018-09-09T07:31:33.905Z,22.30
2018-09-09T07:34:03.148Z,24.00
2018-09-09T07:36:32.772Z,25.20
2018-09-09T07:39:01.876Z,26.20
2018-09-09T07:41:31.024Z,25.00
2018-09-09T07:44:00.132Z,26.10
2018-09-09T07:46:29.339Z,27.10
2018-09-09T07:48:58.793Z,28.10
2018-09-09T07:51:27.864Z,28.30
2018-09-09T07:53:57.053Z,27.20
2018-09-09T07:56:26.173Z,25.60
2018-09-09T07:58:55.269Z,24.90
2018-09-09T08:01:24.437Z,25.20
2018-09-09T08:03:54.693Z,25.20
2018-09-09T08:06:23.773Z,26.10
2018-09-09T08:08:53.137Z,27.20
2018-09-09T08:11:22.388Z,27.90
2018-09-09T08:13:51.472Z,28.40
2018-09-09T08:16:20.576Z,29.40
2018-09-09T08:18:49.696Z,30.20
2018-09-09T08:21:18.824Z,30.70
2018-09-09T08:23:47.973Z,30.50
2018-09-09T08:26:17.324Z,29.60
2018-09-09T08:28:46.545Z,29.30
2018-09-09T08:31:15.664Z,28.50
2018-09-09T08:33:44.754Z,29.70
2018-09-09T08:36:13.914Z,29.70
2018-09-09T08:38:43.000Z,27.10
2018-09-09T08:41:12.188Z,26.50
2018-09-09T08:43:41.342Z,29.00
2018-09-09T08:46:10.436Z,30.80
2018-09-09T08:48:39.842Z,32.80
2018-09-09T08:51:09.007Z,31.50
2018-09-09T08:53:38.152Z,32.10
2018-09-09T08:56:07.431Z,32.50
2018-09-09T08:58:36.568Z,32.00
2018-09-09T09:01:05.881Z,33.20
2018-09-09T09:03:35.226Z,34.40
2018-09-09T09:06:04.328Z,34.20
2018-09-09T09:08:33.433Z,34.00
2018-09-09T09:11:02.592Z,33.70
2018-09-09T09:13:32.788Z,33.60
2018-09-09T09:16:01.887Z,33.40
2018-09-09T09:18:31.040Z,34.50
2018-09-09T09:21:00.127Z,34.80
2018-09-09T09:23:29.396Z,35.20
2018-09-09T09:25:58.517Z,34.90
2018-09-09T09:28:27.576Z,34.00
2018-09-09T09:30:56.674Z,34.60
2018-09-09T09:33:26.614Z,35.40
2018-09-09T09:35:56.336Z,36.80
2018-09-09T09:38:25.733Z,36.10
2018-09-09T09:40:54.792Z,36.30
2018-09-09T09:43:23.889Z,37.00
2018-09-09T09:45:53.023Z,36.40
2018-09-09T09:48:22.112Z,34.70
2018-09-09T09:50:51.176Z,34.20
2018-09-09T09:53:20.417Z,33.30
2018-09-09T09:55:50.008Z,33.60
2018-09-09T09:58:19.654Z,33.70
2018-09-09T10:00:54.179Z,32.60
2018-09-09T10:03:23.278Z,32.10
2018-09-09T10:05:52.341Z,32.60
2018-09-09T10:08:21.636Z,33.20
2018-09-09T10:10:50.732Z,34.00
2018-09-09T10:13:19.824Z,33.60
2018-09-09T10:15:48.996Z,33.80
2018-09-09T10:18:18.096Z,33.20
2018-09-09T10:20:47.192Z,34.40
2018-09-09T10:23:16.508Z,35.20
2018-09-09T10:25:45.615Z,35.60
2018-09-09T10:28:15.742Z,35.50
2018-09-09T10:30:45.236Z,34.50
2018-09-09T10:33:15.456Z,34.40
2018-09-09T10:35:44.579Z,34.80
2018-09-09T10:38:13.704Z,35.30
2018-09-09T10:40:42.846Z,33.90
2018-09-09T10:43:12.149Z,33.30
2018-09-09T10:45:41.231Z,33.80
2018-09-09T10:48:10.332Z,34.50
2018-09-09T10:50:39.536Z,35.00
2018-09-09T10:53:08.736Z,34.80
2018-09-09T10:55:37.884Z,35.50
2018-09-09T10:58:06.992Z,36.10
2018-09-09T11:00:36.662Z,35.90
2018-09-09T11:03:05.724Z,33.90
2018-09-09T11:05:34.837Z,33.50
2018-09-09T11:08:03.916Z,34.50
2018-09-09T11:10:33.060Z,35.10
2018-09-09T11:13:02.833Z,34.80
2018-09-09T11:15:31.892Z,34.70
2018-09-09T11:18:01.225Z,34.60
2018-09-09T11:20:30.500Z,34.50
2018-09-09T11:22:59.920Z,33.80
2018-09-09T11:25:29.016Z,33.90
2018-09-09T11:27:58.164Z,33.90
2018-09-09T11:30:27.335Z,34.30
2018-09-09T11:32:56.401Z,33.90
2018-09-09T11:35:25.509Z,34.00
2018-09-09T11:37:54.830Z,34.40
2018-09-09T11:40:24.061Z,33.90
2018-09-09T11:42:53.704Z,32.90
2018-09-09T11:45:22.812Z,33.20
2018-09-09T11:47:51.960Z,34.10
2018-09-09T11:50:21.233Z,35.20
2018-09-09T11:52:50.608Z,34.90
2018-09-09T11:55:20.439Z,34.70
2018-09-09T11:57:49.484Z,34.80
2018-09-09T12:00:18.818Z,33.60
2018-09-09T12:02:47.912Z,32.00
2018-09-09T12:05:16.986Z,32.10
2018-09-09T12:07:46.185Z,32.10
2018-09-09T12:10:15.788Z,31.50
2018-09-09T12:12:44.904Z,32.00
2018-09-09T12:15:14.084Z,33.10
2018-09-09T12:17:43.178Z,33.90
2018-09-09T12:20:12.321Z,34.00
2018-09-09T12:22:41.388Z,33.40
2018-09-09T12:25:10.485Z,31.80
2018-09-09T12:27:39.548Z,31.80
2018-09-09T12:30:08.761Z,33.00
2018-09-09T12:32:38.053Z,33.50
2018-09-09T12:35:07.180Z,34.30
2018-09-09T12:37:36.355Z,33.70
2018-09-09T12:40:05.768Z,33.30
2018-09-09T12:42:35.151Z,32.80
2018-09-09T12:45:09.596Z,33.10
2018-09-09T12:47:44.089Z,32.90
2018-09-09T12:50:13.424Z,32.20
2018-09-09T12:52:42.508Z,32.30
2018-09-09T12:55:11.605Z,32.60
2018-09-09T12:57:41.017Z,33.30
2018-09-09T13:00:11.043Z,33.80
2018-09-09T13:02:40.320Z,33.50
2018-09-09T13:05:09.596Z,33.90
2018-09-09T13:07:38.934Z,33.20
2018-09-09T13:10:08.099Z,33.00
2018-09-09T13:12:42.601Z,33.70
2018-09-09T13:15:11.845Z,34.20
2018-09-09T13:17:41.368Z,34.10
2018-09-09T13:20:10.564Z,34.00
2018-09-09T13:22:39.716Z,34.20
2018-09-09T13:25:08.835Z,32.40
2018-09-09T13:27:39.074Z,32.80
2018-09-09T13:30:08.324Z,33.20
2018-09-09T13:32:37.433Z,33.60
2018-09-09T13:35:06.572Z,34.10
2018-09-09T13:37:35.702Z,34.20
2018-09-09T13:40:04.824Z,33.00
2018-09-09T13:42:34.565Z,33.30
2018-09-09T13:45:03.828Z,33.70
2018-09-09T13:47:33.232Z,33.50
2018-09-09T13:50:02.404Z,33.10
2018-09-09T13:52:31.455Z,33.50
2018-09-09T13:55:00.864Z,31.90
2018-09-09T13:57:29.998Z,32.60
2018-09-09T13:59:59.282Z,33.30
2018-09-09T14:02:28.369Z,33.00
2018-09-09T14:04:57.506Z,33.40
2018-09-09T14:07:26.649Z,32.50
2018-09-09T14:09:55.857Z,32.80
2018-09-09T14:12:24.924Z,32.90
2018-09-09T14:14:54.052Z,32.90
2018-09-09T14:17:23.252Z,32.00
2018-09-09T14:19:52.584Z,31.40
2018-09-09T14:22:21.765Z,30.90
2018-09-09T14:24:51.086Z,30.90
2018-09-09T14:27:20.280Z,31.20
2018-09-09T14:29:49.468Z,30.90
2018-09-09T14:32:18.755Z,30.70
2018-09-09T14:34:47.919Z,30.20
2018-09-09T14:37:17.628Z,29.90
2018-09-09T14:39:46.754Z,29.20
2018-09-09T14:42:16.100Z,29.10
2018-09-09T14:44:45.237Z,28.50
2018-09-09T14:47:15.476Z,28.50
2018-09-09T14:49:44.644Z,27.90
2018-09-09T14:52:13.711Z,27.60
2018-09-09T14:54:42.889Z,27.60
2018-09-09T14:57:12.008Z,27.80
2018-09-09T14:59:41.108Z,27.80
2018-09-09T15:02:10.528Z,27.50
2018-09-09T15:04:39.664Z,27.40
2018-09-09T15:07:08.762Z,27.00
2018-09-09T15:09:37.975Z,26.80
2018-09-09T15:12:07.128Z,26.60
2018-09-09T15:14:36.373Z,26.60
2018-09-09T15:17:06.233Z,26.60
2018-09-09T15:19:35.367Z,26.60
2018-09-09T15:22:05.245Z,26.60
2018-09-09T15:24:34.401Z,26.60
2018-09-09T15:27:03.648Z,26.60
2018-09-09T15:29:33.036Z,26.50
2018-09-09T15:32:02.136Z,26.20
2018-09-09T15:34:31.323Z,26.20
2018-09-09T15:37:00.702Z,26.20
2018-09-09T15:39:29.985Z,26.10
2018-09-09T15:41:59.092Z,26.10
2018-09-09T15:44:28.365Z,26.00
2018-09-09T15:46:57.476Z,25.70
2018-09-09T15:49:26.673Z,25.50
2018-09-09T15:51:56.518Z,25.30
2018-09-09T15:54:25.575Z,25.30
2018-09-09T15:56:54.691Z,25.30
2018-09-09T15:59:23.807Z,25.40
2018-09-09T16:01:53.491Z,25.40
2018-09-09T16:04:22.588Z,25.30
2018-09-09T16:06:51.821Z,25.00
2018-09-09T16:09:20.836Z,25.00
2018-09-09T16:11:50.030Z,25.00
2018-09-09T16:14:19.084Z,25.00
2018-09-09T16:16:48.184Z,25.00
2018-09-09T16:19:17.356Z,25.00
2018-09-09T16:21:46.995Z,24.80
2018-09-09T16:24:16.321Z,24.80
2018-09-09T16:26:46.179Z,24.70
2018-09-09T16:29:15.262Z,24.60
2018-09-09T16:31:44.444Z,24.40
2018-09-09T16:34:13.564Z,24.40
2018-09-09T16:36:42.913Z,24.30
2018-09-09T16:39:12.017Z,24.20
2018-09-09T16:41:41.154Z,24.00
2018-09-09T16:44:10.405Z,23.90
2018-09-09T16:46:39.535Z,23.70
2018-09-09T16:49:08.697Z,23.60
2018-09-09T16:51:37.788Z,23.30
2018-09-09T16:54:06.884Z,23.20
2018-09-09T16:56:36.068Z,23.20
2018-09-09T16:59:06.048Z,23.20
2018-09-09T17:01:35.153Z,23.10
2018-09-09T17:04:04.444Z,23.10
2018-09-09T17:06:33.856Z,23.00
2018-09-09T17:09:03.138Z,22.80
2018-09-09T17:11:32.341Z,22.70
2018-09-09T17:14:02.383Z,22.60
2018-09-09T17:16:31.526Z,22.40
2018-09-09T17:19:00.646Z,22.30
2018-09-09T17:21:29.708Z,22.10
2018-09-09T17:23:58.903Z,22.00
2018-09-09T17:26:28.012Z,21.80
2018-09-09T17:28:57.130Z,21.70
2018-09-09T17:31:26.181Z,21.50
2018-09-09T17:33:55.330Z,21.40
2018-09-09T17:36:25.368Z,21.40
2018-09-09T17:38:54.552Z,21.30
2018-09-09T17:41:24.205Z,21.20
2018-09-09T17:43:53.313Z,21.00
2018-09-09T17:46:22.544Z,20.90
2018-09-09T17:48:52.014Z,20.80
2018-09-09T17:51:21.696Z,20.50
2018-09-09T17:53:50.828Z,20.40
2018-09-09T17:56:19.976Z,20.30
2018-09-09T17:58:49.244Z,20.10
2018-09-09T18:01:19.357Z,20.00
2018-09-09T18:03:48.488Z,19.80
2018-09-09T18:06:17.620Z,19.70
2018-09-09T18:08:48.557Z,19.50
2018-09-09T18:11:17.719Z,19.40
2018-09-09T18:13:46.816Z,19.20
2018-09-09T18:16:15.972Z,19.10
2018-09-09T18:18:45.028Z,19.00
2018-09-09T18:21:14.103Z,18.90
2018-09-09T18:23:43.220Z,18.70
2018-09-09T18:26:12.380Z,18.60
2018-09-09T18:28:41.525Z,18.50
2018-09-09T18:31:11.688Z,18.30
2018-09-09T18:33:41.499Z,18.30
2018-09-09T18:36:11.580Z,18.20
2018-09-09T18:38:40.862Z,17.90
2018-09-09T18:41:10.036Z,17.80
2018-09-09T18:43:39.169Z,17.80
2018-09-09T18:46:08.740Z,17.70
2018-09-09T18:48:38.637Z,17.60
2018-09-09T18:51:08.276Z,17.50
2018-09-09T18:53:37.448Z,17.50
2018-09-09T18:56:06.588Z,17.40
2018-09-09T18:58:35.684Z,17.40
2018-09-09T19:01:04.937Z,17.40
2018-09-09T19:03:35.096Z,17.30
2018-09-09T19:06:04.253Z,17.30
2018-09-09T19:08:35.306Z,17.20
2018-09-09T19:11:05.314Z,17.10
2018-09-09T19:13:34.486Z,17.00
2018-09-09T19:16:03.615Z,16.80
2018-09-09T19:18:34.080Z,16.60
2018-09-09T19:21:03.791Z,16.60
2018-09-09T19:23:34.040Z,16.60
2018-09-09T19:26:03.188Z,16.50
2018-09-09T19:28:32.409Z,16.40
2018-09-09T19:31:01.789Z,16.30
2018-09-09T19:33:30.941Z,16.20
2018-09-09T19:36:00.762Z,16.10
2018-09-09T19:38:30.420Z,16.10
2018-09-09T19:41:00.036Z,16.10
2018-09-09T19:43:30.214Z,15.90
2018-09-09T19:45:59.432Z,15.90
2018-09-09T19:48:29.284Z,15.80
2018-09-09T19:50:58.385Z,15.70
2018-09-09T19:53:27.640Z,15.60
2018-09-09T19:55:56.803Z,15.50
2018-09-09T19:58:26.498Z,15.40
2018-09-09T20:00:56.045Z,15.40
2018-09-09T20:03:26.385Z,15.40
2018-09-09T20:05:55.472Z,15.30
2018-09-09T20:08:24.976Z,15.20
2018-09-09T20:10:54.509Z,15.20
2018-09-09T20:13:24.015Z,15.20
2018-09-09T20:15:53.744Z,15.20
2018-09-09T20:18:23.624Z,15.10
2018-09-09T20:20:52.728Z,15.10
2018-09-09T20:23:22.409Z,15.00
2018-09-09T20:25:51.608Z,15.00
2018-09-09T20:28:21.368Z,14.90
2018-09-09T20:30:51.068Z,14.80
2018-09-09T20:33:21.487Z,14.80
2018-09-09T20:35:50.589Z,14.70
2018-09-09T20:38:19.786Z,14.70
2018-09-09T20:40:49.256Z,14.70
2018-09-09T20:43:18.357Z,14.60
2018-09-09T20:45:47.472Z,14.50
2018-09-09T20:48:17.259Z,14.40
2018-09-09T20:50:46.336Z,14.40
2018-09-09T20:53:15.496Z,14.40
2018-09-09T20:55:44.592Z,14.30
2018-09-09T20:58:13.693Z,14.30
2018-09-09T21:00:42.796Z,14.30
2018-09-09T21:03:12.532Z,14.20
2018-09-09T21:05:41.672Z,14.00
2018-09-09T21:08:11.364Z,14.00
2018-09-09T21:10:40.670Z,13.90
2018-09-09T21:13:09.773Z,13.90
2018-09-09T21:15:39.064Z,13.90
2018-09-09T21:18:09.628Z,13.90
2018-09-09T21:20:39.680Z,13.80
2018-09-09T21:23:08.820Z,13.80
2018-09-09T21:25:37.924Z,13.70
2018-09-09T21:28:08.828Z,13.70
2018-09-09T21:30:39.540Z,13.70
2018-09-09T21:33:08.672Z,13.60
2018-09-09T21:35:37.772Z,13.50
2018-09-09T21:38:07.044Z,13.50
2018-09-09T21:40:36.228Z,13.40
2018-09-09T21:43:05.372Z,13.40
2018-09-09T21:45:35.037Z,13.40
2018-09-09T21:48:05.156Z,13.30
2018-09-09T21:50:34.580Z,13.30
2018-09-09T21:53:03.675Z,13.30
2018-09-09T21:55:32.788Z,13.20
2018-09-09T21:58:02.940Z,13.10
2018-09-09T22:00:32.052Z,13.10
2018-09-09T22:03:01.158Z,13.10
2018-09-09T22:05:30.218Z,13.10
2018-09-09T22:07:59.419Z,13.00
2018-09-09T22:10:28.572Z,12.90
2018-09-09T22:12:58.500Z,12.80
2018-09-09T22:15:27.617Z,12.60
2018-09-09T22:17:58.303Z,12.40
2018-09-09T22:20:27.399Z,12.40
2018-09-09T22:22:56.732Z,12.50
2018-09-09T22:25:26.052Z,12.40
2018-09-09T22:27:55.906Z,12.40
2018-09-09T22:30:25.041Z,12.40
2018-09-09T22:32:54.304Z,12.40
2018-09-09T22:35:23.485Z,12.30
2018-09-09T22:37:52.589Z,12.30
2018-09-09T22:40:21.824Z,12.30
2018-09-09T22:42:50.928Z,12.30
2018-09-09T22:45:19.992Z,12.20
2018-09-09T22:47:49.121Z,12.20
2018-09-09T22:50:18.240Z,12.20
2018-09-09T22:52:47.304Z,12.20
2018-09-09T22:55:16.449Z,12.20
2018-09-09T22:57:45.524Z,12.10
2018-09-09T23:00:14.600Z,12.10
2018-09-09T23:02:43.692Z,12.10
2018-09-09T23:05:12.788Z,12.00
2018-09-09T23:07:41.884Z,12.00
2018-09-09T23:10:11.075Z,11.90
2018-09-09T23:12:40.204Z,11.90
2018-09-09T23:15:10.080Z,11.90
2018-09-09T23:17:39.208Z,11.90
2018-09-09T23:20:08.388Z,12.00
2018-09-09T23:22:37.533Z,12.00
2018-09-09T23:25:06.684Z,12.00
2018-09-09T23:27:36.592Z,11.90
2018-09-09T23:30:05.993Z,11.80
2018-09-09T23:32:35.160Z,11.90
2018-09-09T23:35:04.388Z,11.90
2018-09-09T23:37:33.496Z,11.80
2018-09-09T23:40:02.585Z,11.80
2018-09-09T23:42:32.184Z,11.80
2018-09-09T23:45:01.384Z,11.70
2018-09-09T23:47:30.624Z,11.60
2018-09-09T23:49:59.772Z,11.50
2018-09-09T23:52:28.977Z,11.50
2018-09-09T23:54:58.118Z,11.50
2018-09-09T23:57:27.264Z,11.40
2018-09-09T23:59:56.421Z,11.40
